sensor_id;sensor_type;location;lat;lon;timestamp;temperature;humidity
18175;DHT22;9212;50.894;16.714;2022-09-13T00:00:48;9.70;99.90
18175;DHT22;9212;50.894;16.714;2022-09-13T00:03:16;10.10;99.90
18175;DHT22;9212;50.894;16.714;2022-09-13T00:05:43;10.50;99.90
18175;DHT22;9212;50.894;16.714;2022-09-13T00:10:38;9.60;99.90
18175;DHT22;9212;50.894;16.714;2022-09-13T00:13:08;9.70;99.90
18175;DHT22;9212;50.894;16.714;2022-09-13T00:15:40;9.70;99.90
18175;DHT22;9212;50.894;16.714;2022-09-13T00:20:35;9.60;99.90
18175;DHT22;9212;50.894;16.714;2022-09-13T00:25:29;9.70;99.90
18175;DHT22;9212;50.894;16.714;2022-09-13T00:30:24;9.60;99.90
18175;DHT22;9212;50.894;16.714;2022-09-13T00:35:19;10.20;99.90
18175;DHT22;9212;50.894;16.714;2022-09-13T00:37:46;9.60;99.90
18175;DHT22;9212;50.894;16.714;2022-09-13T00:40:13;9.90;99.90
18175;DHT22;9212;50.894;16.714;2022-09-13T00:42:40;9.70;99.90
18175;DHT22;9212;50.894;16.714;2022-09-13T00:45:15;9.60;99.90
18175;DHT22;9212;50.894;16.714;2022-09-13T00:47:46;9.60;99.90
18175;DHT22;9212;50.894;16.714;2022-09-13T00:50:20;9.60;99.90
18175;DHT22;9212;50.894;16.714;2022-09-13T00:52:59;9.70;99.90
18175;DHT22;9212;50.894;16.714;2022-09-13T00:55:29;9.60;99.90
18175;DHT22;9212;50.894;16.714;2022-09-13T00:57:59;9.40;99.90
18175;DHT22;9212;50.894;16.714;2022-09-13T01:00:27;9.70;99.90
18175;DHT22;9212;50.894;16.714;2022-09-13T01:02:58;9.40;99.90
18175;DHT22;9212;50.894;16.714;2022-09-13T01:05:30;9.50;99.90
18175;DHT22;9212;50.894;16.714;2022-09-13T01:07:59;9.40;99.90
18175;DHT22;9212;50.894;16.714;2022-09-13T01:10:26;10.10;99.90
18175;DHT22;9212;50.894;16.714;2022-09-13T01:13:00;9.60;99.90
18175;DHT22;9212;50.894;16.714;2022-09-13T01:15:35;10.10;99.90
18175;DHT22;9212;50.894;16.714;2022-09-13T01:18:05;9.40;99.90
18175;DHT22;9212;50.894;16.714;2022-09-13T01:20:44;9.90;99.90
18175;DHT22;9212;50.894;16.714;2022-09-13T01:36:12;9.20;99.90
18175;DHT22;9212;50.894;16.714;2022-09-13T01:38:53;9.50;99.90
18175;DHT22;9212;50.894;16.714;2022-09-13T01:41:48;9.60;99.90
18175;DHT22;9212;50.894;16.714;2022-09-13T01:44:29;9.40;99.90
18175;DHT22;9212;50.894;16.714;2022-09-13T01:47:05;9.00;99.90
18175;DHT22;9212;50.894;16.714;2022-09-13T01:49:44;10.00;99.90
18175;DHT22;9212;50.894;16.714;2022-09-13T01:52:19;9.60;99.90
18175;DHT22;9212;50.894;16.714;2022-09-13T01:54:52;9.70;99.90
18175;DHT22;9212;50.894;16.714;2022-09-13T01:57:26;9.30;99.90
18175;DHT22;9212;50.894;16.714;2022-09-13T01:59:58;9.10;99.90
18175;DHT22;9212;50.894;16.714;2022-09-13T02:02:28;9.10;99.90
18175;DHT22;9212;50.894;16.714;2022-09-13T02:05:04;9.00;99.90
18175;DHT22;9212;50.894;16.714;2022-09-13T02:07:35;10.00;99.90
18175;DHT22;9212;50.894;16.714;2022-09-13T02:10:08;9.60;99.90
18175;DHT22;9212;50.894;16.714;2022-09-13T02:12:40;9.10;99.90
18175;DHT22;9212;50.894;16.714;2022-09-13T02:15:12;9.40;99.90
18175;DHT22;9212;50.894;16.714;2022-09-13T02:17:43;10.10;99.90
18175;DHT22;9212;50.894;16.714;2022-09-13T02:20:17;9.50;99.90
18175;DHT22;9212;50.894;16.714;2022-09-13T02:22:50;8.90;99.90
18175;DHT22;9212;50.894;16.714;2022-09-13T02:25:20;9.00;99.90
18175;DHT22;9212;50.894;16.714;2022-09-13T02:27:51;9.50;99.90
18175;DHT22;9212;50.894;16.714;2022-09-13T02:30:24;8.90;99.90
18175;DHT22;9212;50.894;16.714;2022-09-13T02:32:54;9.40;99.90
18175;DHT22;9212;50.894;16.714;2022-09-13T02:35:25;8.90;99.90
18175;DHT22;9212;50.894;16.714;2022-09-13T02:37:57;8.80;99.90
18175;DHT22;9212;50.894;16.714;2022-09-13T02:40:31;9.40;99.90
18175;DHT22;9212;50.894;16.714;2022-09-13T02:43:04;9.40;99.90
18175;DHT22;9212;50.894;16.714;2022-09-13T02:45:35;9.40;99.90
18175;DHT22;9212;50.894;16.714;2022-09-13T02:48:09;8.60;99.90
18175;DHT22;9212;50.894;16.714;2022-09-13T02:50:46;9.00;99.90
18175;DHT22;9212;50.894;16.714;2022-09-13T02:53:21;9.60;99.90
18175;DHT22;9212;50.894;16.714;2022-09-13T02:55:55;9.00;99.90
18175;DHT22;9212;50.894;16.714;2022-09-13T02:58:29;9.80;99.90
18175;DHT22;9212;50.894;16.714;2022-09-13T03:01:00;8.90;99.90
18175;DHT22;9212;50.894;16.714;2022-09-13T03:03:27;9.40;99.90
18175;DHT22;9212;50.894;16.714;2022-09-13T03:05:55;8.70;99.90
18175;DHT22;9212;50.894;16.714;2022-09-13T03:08:23;9.20;99.90
18175;DHT22;9212;50.894;16.714;2022-09-13T03:10:58;8.80;99.90
18175;DHT22;9212;50.894;16.714;2022-09-13T03:16:50;8.80;99.90
18175;DHT22;9212;50.894;16.714;2022-09-13T03:19:34;9.30;99.90
18175;DHT22;9212;50.894;16.714;2022-09-13T03:25:08;8.80;99.90
18175;DHT22;9212;50.894;16.714;2022-09-13T03:27:44;8.80;99.90
18175;DHT22;9212;50.894;16.714;2022-09-13T03:30:15;9.20;99.90
18175;DHT22;9212;50.894;16.714;2022-09-13T03:32:47;8.80;99.90
18175;DHT22;9212;50.894;16.714;2022-09-13T03:35:23;8.80;99.90
18175;DHT22;9212;50.894;16.714;2022-09-13T03:37:57;8.60;99.90
18175;DHT22;9212;50.894;16.714;2022-09-13T03:40:33;9.20;99.90
18175;DHT22;9212;50.894;16.714;2022-09-13T03:43:05;8.80;99.90
18175;DHT22;9212;50.894;16.714;2022-09-13T03:45:37;9.20;99.90
18175;DHT22;9212;50.894;16.714;2022-09-13T03:48:06;9.20;99.90
18175;DHT22;9212;50.894;16.714;2022-09-13T03:50:35;9.20;99.90
18175;DHT22;9212;50.894;16.714;2022-09-13T03:53:08;9.20;99.90
18175;DHT22;9212;50.894;16.714;2022-09-13T03:55:38;9.40;99.90
18175;DHT22;9212;50.894;16.714;2022-09-13T03:58:07;9.70;99.90
18175;DHT22;9212;50.894;16.714;2022-09-13T04:00:35;9.00;99.90
18175;DHT22;9212;50.894;16.714;2022-09-13T04:05:30;8.60;99.90
18175;DHT22;9212;50.894;16.714;2022-09-13T04:08:00;8.60;99.90
18175;DHT22;9212;50.894;16.714;2022-09-13T04:10:31;8.60;99.90
18175;DHT22;9212;50.894;16.714;2022-09-13T04:12:59;9.20;99.90
18175;DHT22;9212;50.894;16.714;2022-09-13T04:15:26;9.20;99.90
18175;DHT22;9212;50.894;16.714;2022-09-13T04:17:53;8.60;99.90
18175;DHT22;9212;50.894;16.714;2022-09-13T04:20:20;9.20;99.90
18175;DHT22;9212;50.894;16.714;2022-09-13T04:22:50;9.20;99.90
18175;DHT22;9212;50.894;16.714;2022-09-13T04:25:17;8.70;99.90
18175;DHT22;9212;50.894;16.714;2022-09-13T04:27:46;9.60;99.90
18175;DHT22;9212;50.894;16.714;2022-09-13T04:30:13;9.80;99.90
18175;DHT22;9212;50.894;16.714;2022-09-13T04:32:41;8.90;99.90
18175;DHT22;9212;50.894;16.714;2022-09-13T04:35:09;8.80;99.90
18175;DHT22;9212;50.894;16.714;2022-09-13T04:37:36;9.00;99.90
18175;DHT22;9212;50.894;16.714;2022-09-13T04:40:05;9.10;99.90
18175;DHT22;9212;50.894;16.714;2022-09-13T04:42:32;9.00;99.90
18175;DHT22;9212;50.894;16.714;2022-09-13T04:45:01;9.60;99.90
18175;DHT22;9212;50.894;16.714;2022-09-13T04:47:29;9.20;99.90
18175;DHT22;9212;50.894;16.714;2022-09-13T04:49:56;9.20;99.90
18175;DHT22;9212;50.894;16.714;2022-09-13T04:52:23;9.40;99.90
18175;DHT22;9212;50.894;16.714;2022-09-13T04:54:49;9.50;99.90
18175;DHT22;9212;50.894;16.714;2022-09-13T04:57:17;9.90;99.90
18175;DHT22;9212;50.894;16.714;2022-09-13T04:59:44;9.60;99.90
18175;DHT22;9212;50.894;16.714;2022-09-13T05:02:12;9.70;99.90
18175;DHT22;9212;50.894;16.714;2022-09-13T05:04:39;9.80;99.90
18175;DHT22;9212;50.894;16.714;2022-09-13T05:07:06;10.00;99.90
18175;DHT22;9212;50.894;16.714;2022-09-13T05:09:33;10.00;99.90
18175;DHT22;9212;50.894;16.714;2022-09-13T05:12:00;10.70;99.90
18175;DHT22;9212;50.894;16.714;2022-09-13T05:14:26;10.60;99.90
18175;DHT22;9212;50.894;16.714;2022-09-13T05:16:53;10.90;99.90
18175;DHT22;9212;50.894;16.714;2022-09-13T05:19:22;11.10;99.90
18175;DHT22;9212;50.894;16.714;2022-09-13T05:21:49;12.00;99.90
18175;DHT22;9212;50.894;16.714;2022-09-13T05:24:15;12.10;99.90
18175;DHT22;9212;50.894;16.714;2022-09-13T05:29:09;14.30;99.90
18175;DHT22;9212;50.894;16.714;2022-09-13T05:31:38;14.90;99.90
18175;DHT22;9212;50.894;16.714;2022-09-13T05:34:08;15.80;99.90
18175;DHT22;9212;50.894;16.714;2022-09-13T05:36:37;16.40;99.90
18175;DHT22;9212;50.894;16.714;2022-09-13T05:39:06;16.60;99.90
18175;DHT22;9212;50.894;16.714;2022-09-13T05:41:34;16.60;99.90
18175;DHT22;9212;50.894;16.714;2022-09-13T05:44:01;17.80;99.90
18175;DHT22;9212;50.894;16.714;2022-09-13T05:46:28;18.00;99.90
18175;DHT22;9212;50.894;16.714;2022-09-13T05:48:57;18.90;99.90
18175;DHT22;9212;50.894;16.714;2022-09-13T05:51:25;20.00;99.90
18175;DHT22;9212;50.894;16.714;2022-09-13T05:53:54;21.00;99.90
18175;DHT22;9212;50.894;16.714;2022-09-13T05:56:23;21.80;99.90
18175;DHT22;9212;50.894;16.714;2022-09-13T05:58:51;21.40;99.90
18175;DHT22;9212;50.894;16.714;2022-09-13T06:01:20;19.90;99.90
18175;DHT22;9212;50.894;16.714;2022-09-13T06:03:48;19.40;99.90
18175;DHT22;9212;50.894;16.714;2022-09-13T06:06:15;19.50;99.90
18175;DHT22;9212;50.894;16.714;2022-09-13T06:08:42;19.90;99.90
18175;DHT22;9212;50.894;16.714;2022-09-13T06:11:12;21.20;99.90
18175;DHT22;9212;50.894;16.714;2022-09-13T06:13:40;20.50;99.90
18175;DHT22;9212;50.894;16.714;2022-09-13T06:16:11;20.40;99.90
18175;DHT22;9212;50.894;16.714;2022-09-13T06:18:38;21.10;99.90
18175;DHT22;9212;50.894;16.714;2022-09-13T06:21:07;22.20;99.90
18175;DHT22;9212;50.894;16.714;2022-09-13T06:23:34;23.30;99.90
18175;DHT22;9212;50.894;16.714;2022-09-13T06:26:02;23.40;99.90
18175;DHT22;9212;50.894;16.714;2022-09-13T06:28:32;24.10;99.90
18175;DHT22;9212;50.894;16.714;2022-09-13T06:31:00;23.70;99.90
18175;DHT22;9212;50.894;16.714;2022-09-13T06:33:27;23.40;99.90
18175;DHT22;9212;50.894;16.714;2022-09-13T06:35:58;24.10;99.90
18175;DHT22;9212;50.894;16.714;2022-09-13T06:38:25;24.60;99.90
18175;DHT22;9212;50.894;16.714;2022-09-13T06:40:59;24.80;99.90
18175;DHT22;9212;50.894;16.714;2022-09-13T06:43:26;25.30;99.90
18175;DHT22;9212;50.894;16.714;2022-09-13T06:45:58;25.90;99.90
18175;DHT22;9212;50.894;16.714;2022-09-13T06:48:26;25.80;99.90
18175;DHT22;9212;50.894;16.714;2022-09-13T06:50:57;26.50;99.90
18175;DHT22;9212;50.894;16.714;2022-09-13T06:53:24;25.60;99.90
18175;DHT22;9212;50.894;16.714;2022-09-13T06:56:00;25.50;99.90
18175;DHT22;9212;50.894;16.714;2022-09-13T06:58:28;24.90;99.90
18175;DHT22;9212;50.894;16.714;2022-09-13T07:01:09;25.50;99.90
18175;DHT22;9212;50.894;16.714;2022-09-13T07:03:38;24.80;99.90
18175;DHT22;9212;50.894;16.714;2022-09-13T07:06:07;24.60;99.90
18175;DHT22;9212;50.894;16.714;2022-09-13T07:08:35;24.50;99.90
18175;DHT22;9212;50.894;16.714;2022-09-13T07:11:01;25.50;99.90
18175;DHT22;9212;50.894;16.714;2022-09-13T07:13:28;25.90;99.90
18175;DHT22;9212;50.894;16.714;2022-09-13T07:15:55;26.50;99.90
18175;DHT22;9212;50.894;16.714;2022-09-13T07:18:24;26.90;99.90
18175;DHT22;9212;50.894;16.714;2022-09-13T07:20:51;26.60;99.90
18175;DHT22;9212;50.894;16.714;2022-09-13T07:23:18;24.40;99.90
18175;DHT22;9212;50.894;16.714;2022-09-13T07:25:53;22.80;99.90
18175;DHT22;9212;50.894;16.714;2022-09-13T07:28:20;24.20;99.90
18175;DHT22;9212;50.894;16.714;2022-09-13T07:30:47;23.30;99.90
18175;DHT22;9212;50.894;16.714;2022-09-13T07:33:14;22.70;99.90
18175;DHT22;9212;50.894;16.714;2022-09-13T07:35:42;22.10;99.90
18175;DHT22;9212;50.894;16.714;2022-09-13T07:38:09;21.00;99.90
18175;DHT22;9212;50.894;16.714;2022-09-13T07:40:36;20.90;99.90
18175;DHT22;9212;50.894;16.714;2022-09-13T07:43:03;20.70;99.90
18175;DHT22;9212;50.894;16.714;2022-09-13T07:45:30;20.50;99.90
18175;DHT22;9212;50.894;16.714;2022-09-13T07:47:58;20.60;99.90
18175;DHT22;9212;50.894;16.714;2022-09-13T07:50:25;21.10;99.90
18175;DHT22;9212;50.894;16.714;2022-09-13T07:52:53;22.10;99.90
18175;DHT22;9212;50.894;16.714;2022-09-13T07:55:20;23.60;99.90
18175;DHT22;9212;50.894;16.714;2022-09-13T07:57:47;23.60;99.90
18175;DHT22;9212;50.894;16.714;2022-09-13T08:00:14;23.40;99.90
18175;DHT22;9212;50.894;16.714;2022-09-13T08:02:41;22.80;99.90
18175;DHT22;9212;50.894;16.714;2022-09-13T08:05:08;22.60;99.90
18175;DHT22;9212;50.894;16.714;2022-09-13T08:07:35;22.40;99.90
18175;DHT22;9212;50.894;16.714;2022-09-13T08:10:03;22.10;99.90
18175;DHT22;9212;50.894;16.714;2022-09-13T08:12:30;21.60;99.90
18175;DHT22;9212;50.894;16.714;2022-09-13T08:14:57;21.10;99.90
18175;DHT22;9212;50.894;16.714;2022-09-13T08:17:24;21.10;99.90
18175;DHT22;9212;50.894;16.714;2022-09-13T08:19:51;21.70;99.90
18175;DHT22;9212;50.894;16.714;2022-09-13T08:22:18;21.80;99.90
18175;DHT22;9212;50.894;16.714;2022-09-13T08:24:45;21.60;99.90
18175;DHT22;9212;50.894;16.714;2022-09-13T08:27:14;21.60;99.90
18175;DHT22;9212;50.894;16.714;2022-09-13T08:29:40;21.70;99.90
18175;DHT22;9212;50.894;16.714;2022-09-13T08:32:07;21.80;99.90
18175;DHT22;9212;50.894;16.714;2022-09-13T08:34:34;21.90;99.90
18175;DHT22;9212;50.894;16.714;2022-09-13T08:37:01;21.60;99.90
18175;DHT22;9212;50.894;16.714;2022-09-13T08:39:28;21.80;99.90
18175;DHT22;9212;50.894;16.714;2022-09-13T08:42:06;22.10;99.90
18175;DHT22;9212;50.894;16.714;2022-09-13T08:44:43;22.00;99.90
18175;DHT22;9212;50.894;16.714;2022-09-13T08:47:33;22.00;99.90
18175;DHT22;9212;50.894;16.714;2022-09-13T08:50:06;22.30;99.90
18175;DHT22;9212;50.894;16.714;2022-09-13T08:52:44;22.50;99.90
18175;DHT22;9212;50.894;16.714;2022-09-13T08:55:27;22.40;99.90
18175;DHT22;9212;50.894;16.714;2022-09-13T08:58:03;23.00;99.90
18175;DHT22;9212;50.894;16.714;2022-09-13T09:00:37;22.90;99.90
18175;DHT22;9212;50.894;16.714;2022-09-13T09:03:19;23.50;99.90
18175;DHT22;9212;50.894;16.714;2022-09-13T09:05:49;23.40;99.90
18175;DHT22;9212;50.894;16.714;2022-09-13T09:08:26;23.70;99.90
18175;DHT22;9212;50.894;16.714;2022-09-13T09:10:56;24.10;99.90
18175;DHT22;9212;50.894;16.714;2022-09-13T09:13:27;24.40;99.90
18175;DHT22;9212;50.894;16.714;2022-09-13T09:16:00;25.00;99.90
18175;DHT22;9212;50.894;16.714;2022-09-13T09:18:31;24.60;99.90
18175;DHT22;9212;50.894;16.714;2022-09-13T09:21:00;24.50;99.90
18175;DHT22;9212;50.894;16.714;2022-09-13T09:23:34;24.40;99.90
18175;DHT22;9212;50.894;16.714;2022-09-13T09:26:13;24.30;99.90
18175;DHT22;9212;50.894;16.714;2022-09-13T09:28:42;23.80;99.90
18175;DHT22;9212;50.894;16.714;2022-09-13T09:31:14;23.50;99.90
18175;DHT22;9212;50.894;16.714;2022-09-13T09:34:02;23.50;99.90
18175;DHT22;9212;50.894;16.714;2022-09-13T09:36:38;23.50;99.90
18175;DHT22;9212;50.894;16.714;2022-09-13T09:39:11;23.90;99.90
18175;DHT22;9212;50.894;16.714;2022-09-13T09:41:42;23.60;99.90
18175;DHT22;9212;50.894;16.714;2022-09-13T09:44:17;23.90;99.90
18175;DHT22;9212;50.894;16.714;2022-09-13T09:46:54;23.80;99.90
18175;DHT22;9212;50.894;16.714;2022-09-13T09:49:26;23.30;99.90
18175;DHT22;9212;50.894;16.714;2022-09-13T09:52:14;23.10;99.90
18175;DHT22;9212;50.894;16.714;2022-09-13T09:54:43;22.30;99.90
18175;DHT22;9212;50.894;16.714;2022-09-13T09:57:12;22.10;99.90
18175;DHT22;9212;50.894;16.714;2022-09-13T09:59:39;22.20;99.90
18175;DHT22;9212;50.894;16.714;2022-09-13T10:02:14;22.30;99.90
18175;DHT22;9212;50.894;16.714;2022-09-13T10:04:42;22.20;99.90
18175;DHT22;9212;50.894;16.714;2022-09-13T10:07:24;22.30;99.90
18175;DHT22;9212;50.894;16.714;2022-09-13T10:09:57;22.50;99.90
18175;DHT22;9212;50.894;16.714;2022-09-13T10:12:32;22.70;99.90
18175;DHT22;9212;50.894;16.714;2022-09-13T10:15:14;22.60;99.90
18175;DHT22;9212;50.894;16.714;2022-09-13T10:17:59;22.50;99.90
18175;DHT22;9212;50.894;16.714;2022-09-13T10:20:27;22.50;99.90
18175;DHT22;9212;50.894;16.714;2022-09-13T10:23:18;22.70;99.90
18175;DHT22;9212;50.894;16.714;2022-09-13T10:26:03;22.40;99.90
18175;DHT22;9212;50.894;16.714;2022-09-13T10:28:33;22.70;99.90
18175;DHT22;9212;50.894;16.714;2022-09-13T10:31:03;23.40;99.90
18175;DHT22;9212;50.894;16.714;2022-09-13T10:33:36;23.50;99.90
18175;DHT22;9212;50.894;16.714;2022-09-13T10:36:06;23.60;99.90
18175;DHT22;9212;50.894;16.714;2022-09-13T10:38:36;23.20;99.90
18175;DHT22;9212;50.894;16.714;2022-09-13T10:41:06;23.10;99.90
18175;DHT22;9212;50.894;16.714;2022-09-13T10:43:35;23.00;99.90
18175;DHT22;9212;50.894;16.714;2022-09-13T10:46:04;23.10;99.90
18175;DHT22;9212;50.894;16.714;2022-09-13T10:48:46;23.10;99.90
18175;DHT22;9212;50.894;16.714;2022-09-13T10:51:30;22.90;99.90
18175;DHT22;9212;50.894;16.714;2022-09-13T10:54:16;22.30;99.90
18175;DHT22;9212;50.894;16.714;2022-09-13T10:56:43;22.30;99.90
18175;DHT22;9212;50.894;16.714;2022-09-13T10:59:16;22.30;99.90
18175;DHT22;9212;50.894;16.714;2022-09-13T11:02:04;22.00;99.90
18175;DHT22;9212;50.894;16.714;2022-09-13T11:04:49;21.90;99.90
18175;DHT22;9212;50.894;16.714;2022-09-13T11:07:42;21.60;99.90
18175;DHT22;9212;50.894;16.714;2022-09-13T11:10:17;21.40;99.90
18175;DHT22;9212;50.894;16.714;2022-09-13T11:12:53;21.50;99.90
18175;DHT22;9212;50.894;16.714;2022-09-13T11:15:34;21.40;99.90
18175;DHT22;9212;50.894;16.714;2022-09-13T11:18:33;21.10;99.90
18175;DHT22;9212;50.894;16.714;2022-09-13T11:21:17;21.10;99.90
18175;DHT22;9212;50.894;16.714;2022-09-13T11:24:06;21.30;99.90
18175;DHT22;9212;50.894;16.714;2022-09-13T11:26:48;21.30;99.90
18175;DHT22;9212;50.894;16.714;2022-09-13T11:29:26;21.40;99.90
18175;DHT22;9212;50.894;16.714;2022-09-13T11:32:04;21.70;99.90
18175;DHT22;9212;50.894;16.714;2022-09-13T11:34:42;21.80;99.90
18175;DHT22;9212;50.894;16.714;2022-09-13T11:37:31;21.90;99.90
18175;DHT22;9212;50.894;16.714;2022-09-13T11:40:21;21.60;99.90
18175;DHT22;9212;50.894;16.714;2022-09-13T11:42:58;21.70;99.90
18175;DHT22;9212;50.894;16.714;2022-09-13T11:45:34;21.40;99.90
18175;DHT22;9212;50.894;16.714;2022-09-13T11:48:20;21.80;99.90
18175;DHT22;9212;50.894;16.714;2022-09-13T11:50:57;21.80;99.90
18175;DHT22;9212;50.894;16.714;2022-09-13T11:53:59;21.50;99.90
18175;DHT22;9212;50.894;16.714;2022-09-13T11:56:31;21.40;99.90
18175;DHT22;9212;50.894;16.714;2022-09-13T11:59:09;21.10;99.90
18175;DHT22;9212;50.894;16.714;2022-09-13T12:01:44;21.10;99.90
18175;DHT22;9212;50.894;16.714;2022-09-13T12:04:16;20.80;99.90
18175;DHT22;9212;50.894;16.714;2022-09-13T12:06:47;20.80;99.90
18175;DHT22;9212;50.894;16.714;2022-09-13T12:09:19;20.70;99.90
18175;DHT22;9212;50.894;16.714;2022-09-13T12:11:52;20.80;99.90
18175;DHT22;9212;50.894;16.714;2022-09-13T12:14:22;20.70;99.90
18175;DHT22;9212;50.894;16.714;2022-09-13T12:16:54;21.20;99.90
18175;DHT22;9212;50.894;16.714;2022-09-13T12:19:26;21.30;99.90
18175;DHT22;9212;50.894;16.714;2022-09-13T12:21:57;21.90;99.90
18175;DHT22;9212;50.894;16.714;2022-09-13T12:24:33;21.90;99.90
18175;DHT22;9212;50.894;16.714;2022-09-13T12:27:04;22.20;99.90
18175;DHT22;9212;50.894;16.714;2022-09-13T12:29:38;22.40;99.90
18175;DHT22;9212;50.894;16.714;2022-09-13T12:32:08;22.70;99.90
18175;DHT22;9212;50.894;16.714;2022-09-13T12:34:41;22.70;99.90
18175;DHT22;9212;50.894;16.714;2022-09-13T12:37:17;22.50;99.90
18175;DHT22;9212;50.894;16.714;2022-09-13T12:40:07;22.50;99.90
18175;DHT22;9212;50.894;16.714;2022-09-13T12:43:06;22.20;99.90
18175;DHT22;9212;50.894;16.714;2022-09-13T12:46:11;21.90;99.90
18175;DHT22;9212;50.894;16.714;2022-09-13T12:48:57;21.80;99.90
18175;DHT22;9212;50.894;16.714;2022-09-13T12:51:37;22.00;99.90
18175;DHT22;9212;50.894;16.714;2022-09-13T12:57:20;22.50;99.90
18175;DHT22;9212;50.894;16.714;2022-09-13T13:00:00;22.60;99.90
18175;DHT22;9212;50.894;16.714;2022-09-13T13:02:33;23.30;99.90
18175;DHT22;9212;50.894;16.714;2022-09-13T13:05:04;23.20;99.90
18175;DHT22;9212;50.894;16.714;2022-09-13T13:07:34;23.20;99.90
18175;DHT22;9212;50.894;16.714;2022-09-13T13:10:04;23.10;99.90
18175;DHT22;9212;50.894;16.714;2022-09-13T13:12:35;23.30;99.90
18175;DHT22;9212;50.894;16.714;2022-09-13T13:15:04;23.40;99.90
18175;DHT22;9212;50.894;16.714;2022-09-13T13:17:38;23.20;99.90
18175;DHT22;9212;50.894;16.714;2022-09-13T13:20:41;23.10;99.90
18175;DHT22;9212;50.894;16.714;2022-09-13T13:23:25;22.80;99.90
18175;DHT22;9212;50.894;16.714;2022-09-13T13:26:02;23.20;99.90
18175;DHT22;9212;50.894;16.714;2022-09-13T13:31:36;22.40;99.90
18175;DHT22;9212;50.894;16.714;2022-09-13T13:34:26;22.30;99.90
18175;DHT22;9212;50.894;16.714;2022-09-13T13:36:58;22.40;99.90
18175;DHT22;9212;50.894;16.714;2022-09-13T13:39:34;22.40;99.90
18175;DHT22;9212;50.894;16.714;2022-09-13T13:42:11;22.50;99.90
18175;DHT22;9212;50.894;16.714;2022-09-13T13:45:06;22.40;99.90
18175;DHT22;9212;50.894;16.714;2022-09-13T13:47:53;22.70;99.90
18175;DHT22;9212;50.894;16.714;2022-09-13T13:50:21;22.90;99.90
18175;DHT22;9212;50.894;16.714;2022-09-13T13:52:53;23.00;99.90
18175;DHT22;9212;50.894;16.714;2022-09-13T13:55:36;23.30;99.90
18175;DHT22;9212;50.894;16.714;2022-09-13T14:00:53;23.40;99.90
18175;DHT22;9212;50.894;16.714;2022-09-13T14:03:27;23.30;99.90
18175;DHT22;9212;50.894;16.714;2022-09-13T14:06:05;23.40;99.90
18175;DHT22;9212;50.894;16.714;2022-09-13T14:08:45;23.20;99.90
18175;DHT22;9212;50.894;16.714;2022-09-13T14:11:25;23.10;99.90
18175;DHT22;9212;50.894;16.714;2022-09-13T14:14:06;23.30;99.90
18175;DHT22;9212;50.894;16.714;2022-09-13T14:16:48;23.20;99.90
18175;DHT22;9212;50.894;16.714;2022-09-13T14:19:23;22.90;99.90
18175;DHT22;9212;50.894;16.714;2022-09-13T14:22:05;23.10;99.90
18175;DHT22;9212;50.894;16.714;2022-09-13T14:24:36;22.80;99.90
18175;DHT22;9212;50.894;16.714;2022-09-13T14:27:04;22.80;99.90
18175;DHT22;9212;50.894;16.714;2022-09-13T14:29:31;22.50;99.90
18175;DHT22;9212;50.894;16.714;2022-09-13T14:32:03;22.20;99.90
18175;DHT22;9212;50.894;16.714;2022-09-13T14:34:34;22.30;99.90
18175;DHT22;9212;50.894;16.714;2022-09-13T14:37:05;22.60;99.90
18175;DHT22;9212;50.894;16.714;2022-09-13T14:39:33;22.80;99.90
18175;DHT22;9212;50.894;16.714;2022-09-13T14:42:01;22.70;99.90
18175;DHT22;9212;50.894;16.714;2022-09-13T14:44:28;22.60;99.90
18175;DHT22;9212;50.894;16.714;2022-09-13T14:47:01;22.40;99.90
18175;DHT22;9212;50.894;16.714;2022-09-13T14:49:35;22.30;99.90
18175;DHT22;9212;50.894;16.714;2022-09-13T14:52:07;22.10;99.90
18175;DHT22;9212;50.894;16.714;2022-09-13T14:54:37;22.00;99.90
18175;DHT22;9212;50.894;16.714;2022-09-13T14:57:07;21.90;99.90
18175;DHT22;9212;50.894;16.714;2022-09-13T14:59:41;22.00;99.90
18175;DHT22;9212;50.894;16.714;2022-09-13T15:02:16;22.10;99.90
18175;DHT22;9212;50.894;16.714;2022-09-13T15:04:48;22.10;99.90
18175;DHT22;9212;50.894;16.714;2022-09-13T15:07:22;21.90;99.90
18175;DHT22;9212;50.894;16.714;2022-09-13T15:09:49;21.90;99.90
18175;DHT22;9212;50.894;16.714;2022-09-13T15:12:24;21.90;99.90
18175;DHT22;9212;50.894;16.714;2022-09-13T15:15:16;21.50;99.90
18175;DHT22;9212;50.894;16.714;2022-09-13T15:17:54;21.70;99.90
18175;DHT22;9212;50.894;16.714;2022-09-13T15:20:23;21.60;99.90
18175;DHT22;9212;50.894;16.714;2022-09-13T15:22:51;21.40;99.90
18175;DHT22;9212;50.894;16.714;2022-09-13T15:25:21;21.40;99.90
18175;DHT22;9212;50.894;16.714;2022-09-13T15:27:51;21.30;99.90
18175;DHT22;9212;50.894;16.714;2022-09-13T15:30:26;21.40;99.90
18175;DHT22;9212;50.894;16.714;2022-09-13T15:33:18;21.20;99.90
18175;DHT22;9212;50.894;16.714;2022-09-13T15:35:49;21.10;99.90
18175;DHT22;9212;50.894;16.714;2022-09-13T15:38:23;21.10;99.90
18175;DHT22;9212;50.894;16.714;2022-09-13T15:41:01;21.00;99.90
18175;DHT22;9212;50.894;16.714;2022-09-13T15:43:29;20.70;99.90
18175;DHT22;9212;50.894;16.714;2022-09-13T15:45:57;20.70;99.90
18175;DHT22;9212;50.894;16.714;2022-09-13T15:48:29;20.70;99.90
18175;DHT22;9212;50.894;16.714;2022-09-13T15:51:06;20.70;99.90
18175;DHT22;9212;50.894;16.714;2022-09-13T15:53:35;20.60;99.90
18175;DHT22;9212;50.894;16.714;2022-09-13T15:56:03;20.70;99.90
18175;DHT22;9212;50.894;16.714;2022-09-13T15:58:31;20.70;99.90
18175;DHT22;9212;50.894;16.714;2022-09-13T16:00:58;20.80;99.90
18175;DHT22;9212;50.894;16.714;2022-09-13T16:03:25;20.80;99.90
18175;DHT22;9212;50.894;16.714;2022-09-13T16:05:52;20.60;99.90
18175;DHT22;9212;50.894;16.714;2022-09-13T16:08:21;20.60;99.90
18175;DHT22;9212;50.894;16.714;2022-09-13T16:10:49;20.50;99.90
18175;DHT22;9212;50.894;16.714;2022-09-13T16:13:15;20.50;99.90
18175;DHT22;9212;50.894;16.714;2022-09-13T16:15:42;20.50;99.90
18175;DHT22;9212;50.894;16.714;2022-09-13T16:18:09;20.30;99.90
18175;DHT22;9212;50.894;16.714;2022-09-13T16:20:36;20.30;99.90
18175;DHT22;9212;50.894;16.714;2022-09-13T16:23:03;19.90;99.90
18175;DHT22;9212;50.894;16.714;2022-09-13T16:25:32;20.00;99.90
18175;DHT22;9212;50.894;16.714;2022-09-13T16:27:59;19.80;99.90
18175;DHT22;9212;50.894;16.714;2022-09-13T16:30:26;19.80;99.90
18175;DHT22;9212;50.894;16.714;2022-09-13T16:32:55;19.40;99.90
18175;DHT22;9212;50.894;16.714;2022-09-13T16:35:23;19.60;99.90
18175;DHT22;9212;50.894;16.714;2022-09-13T16:37:51;19.90;99.90
18175;DHT22;9212;50.894;16.714;2022-09-13T16:40:19;19.60;99.90
18175;DHT22;9212;50.894;16.714;2022-09-13T16:42:48;19.40;99.90
18175;DHT22;9212;50.894;16.714;2022-09-13T16:45:15;19.20;99.90
18175;DHT22;9212;50.894;16.714;2022-09-13T16:47:42;19.20;99.90
18175;DHT22;9212;50.894;16.714;2022-09-13T16:50:09;18.80;99.90
18175;DHT22;9212;50.894;16.714;2022-09-13T16:52:37;19.10;99.90